createdAt,value
2023-05-12T00:00:21.644Z,3.67
2023-05-12T00:03:10.433Z,3.63
2023-05-12T00:06:03.621Z,3.77
2023-05-12T00:08:52.337Z,3.97
2023-05-12T00:11:40.958Z,4.00
2023-05-12T00:14:29.593Z,3.73
2023-05-12T00:17:18.101Z,4.10
2023-05-12T00:20:07.569Z,3.73
2023-05-12T00:22:57.342Z,3.60
2023-05-12T00:25:45.842Z,4.03
2023-05-12T00:28:34.437Z,4.13
2023-05-12T00:31:22.873Z,3.50
2023-05-12T00:34:11.417Z,4.07
2023-05-12T00:36:59.871Z,4.37
2023-05-12T00:39:49.755Z,4.00
2023-05-12T00:42:38.331Z,3.77
2023-05-12T00:45:27.005Z,3.80
2023-05-12T00:48:15.735Z,4.00
2023-05-12T00:51:04.395Z,4.40
2023-05-12T00:53:53.297Z,3.50
2023-05-12T00:56:43.275Z,3.80
2023-05-12T00:59:31.722Z,4.30
2023-05-12T01:02:20.355Z,3.77
2023-05-12T01:05:10.141Z,3.83
2023-05-12T01:08:01.609Z,3.77
2023-05-12T01:10:49.996Z,3.80
2023-05-12T01:13:41.346Z,3.40
2023-05-12T01:16:36.730Z,3.83
2023-05-12T01:19:35.334Z,4.03
2023-05-12T01:22:24.384Z,3.90
2023-05-12T01:25:14.447Z,4.00
2023-05-12T01:28:05.509Z,3.80
2023-05-12T01:30:54.135Z,4.40
2023-05-12T01:33:44.027Z,4.30
2023-05-12T01:36:32.751Z,3.80
2023-05-12T01:39:21.217Z,3.40
2023-05-12T01:42:09.835Z,3.80
2023-05-12T01:44:59.625Z,3.77
2023-05-12T01:47:48.078Z,4.17
2023-05-12T01:50:36.507Z,3.80
2023-05-12T01:53:24.952Z,3.80
2023-05-12T01:56:13.386Z,4.10
2023-05-12T01:59:01.840Z,3.77
2023-05-12T02:01:51.744Z,4.10
2023-05-12T02:04:40.296Z,3.77
2023-05-12T02:07:28.654Z,3.87
2023-05-12T02:10:17.234Z,3.50
2023-05-12T02:13:05.741Z,4.20
2023-05-12T02:15:54.140Z,4.30
2023-05-12T02:18:44.062Z,3.90
2023-05-12T02:21:32.985Z,3.80
2023-05-12T02:24:21.419Z,3.50
2023-05-12T02:27:09.904Z,3.90
2023-05-12T02:29:58.417Z,3.70
2023-05-12T02:32:47.171Z,3.90
2023-05-12T02:35:39.699Z,3.80
2023-05-12T02:38:28.162Z,4.00
2023-05-12T02:41:16.799Z,4.30
2023-05-12T02:44:05.415Z,4.30
2023-05-12T02:46:53.833Z,3.60
2023-05-12T02:49:42.234Z,4.00
2023-05-12T02:52:32.163Z,3.90
2023-05-12T02:55:20.706Z,4.30
2023-05-12T02:58:09.481Z,3.70
2023-05-12T03:01:09.384Z,3.80
2023-05-12T03:03:58.228Z,4.70
2023-05-12T03:06:46.727Z,4.20
2023-05-12T03:09:36.520Z,4.13
2023-05-12T03:12:24.909Z,3.80
2023-05-12T03:15:13.749Z,4.00
2023-05-12T03:18:02.221Z,4.50
2023-05-12T03:20:50.747Z,4.30
2023-05-12T03:23:39.131Z,3.93
2023-05-12T03:26:28.938Z,3.90
2023-05-12T03:29:17.351Z,4.53
2023-05-12T03:32:06.448Z,3.97
2023-05-12T03:34:54.959Z,3.60
2023-05-12T03:37:43.361Z,4.10
2023-05-12T03:40:31.859Z,3.97
2023-05-12T03:43:21.755Z,4.00
2023-05-12T03:46:10.243Z,4.37
2023-05-12T03:48:58.887Z,4.30
2023-05-12T03:51:47.488Z,4.00
2023-05-12T03:54:37.819Z,4.20
2023-05-12T03:57:26.417Z,4.10
2023-05-12T04:00:17.324Z,4.30
2023-05-12T04:03:06.221Z,4.00
2023-05-12T04:06:00.335Z,4.13
2023-05-12T04:08:48.733Z,4.50
2023-05-12T04:11:37.200Z,4.13
2023-05-12T04:14:35.268Z,4.57
2023-05-12T04:17:25.546Z,4.10
2023-05-12T04:20:14.327Z,4.50
2023-05-12T04:23:02.866Z,4.20
2023-05-12T04:25:51.242Z,4.20
2023-05-12T04:28:39.632Z,4.23
2023-05-12T04:31:28.171Z,4.23
2023-05-12T04:34:18.048Z,4.70
2023-05-12T04:37:06.739Z,4.60
2023-05-12T04:39:55.346Z,4.77
2023-05-12T04:42:43.805Z,4.53
2023-05-12T04:45:32.215Z,4.43
2023-05-12T04:48:20.645Z,4.40
2023-05-12T04:51:10.655Z,4.37
2023-05-12T04:53:59.168Z,4.17
2023-05-12T04:56:47.589Z,4.10
2023-05-12T04:59:36.557Z,4.40
2023-05-12T05:02:25.082Z,4.40
2023-05-12T05:05:13.632Z,4.30
2023-05-12T05:08:03.493Z,4.10
2023-05-12T05:10:52.048Z,4.57
2023-05-12T05:13:40.592Z,4.60
2023-05-12T05:16:29.367Z,4.40
2023-05-12T05:19:22.738Z,4.50
2023-05-12T05:22:18.497Z,4.40
2023-05-12T05:25:10.244Z,4.50
2023-05-12T05:27:58.700Z,4.47
2023-05-12T05:30:47.273Z,4.80
2023-05-12T05:33:35.826Z,4.00
2023-05-12T05:36:26.305Z,4.20
2023-05-12T05:39:14.809Z,4.47
2023-05-12T05:42:04.868Z,4.60
2023-05-12T05:44:53.258Z,4.80
2023-05-12T05:47:42.347Z,4.33
2023-05-12T05:50:30.833Z,4.50
2023-05-12T05:53:20.333Z,4.57
2023-05-12T05:56:09.066Z,4.20
2023-05-12T05:59:02.740Z,4.30
2023-05-12T06:01:51.238Z,3.90
2023-05-12T06:04:39.677Z,4.00
2023-05-12T06:07:28.099Z,4.47
2023-05-12T06:10:16.522Z,4.13
2023-05-12T06:13:04.965Z,4.23
2023-05-12T06:15:54.785Z,4.03
2023-05-12T06:18:43.232Z,3.83
2023-05-12T06:21:32.347Z,4.10
2023-05-12T06:24:20.727Z,3.93
2023-05-12T06:27:09.532Z,4.70
2023-05-12T06:29:57.992Z,4.50
2023-05-12T06:32:47.806Z,4.03
2023-05-12T06:35:36.448Z,4.27
2023-05-12T06:38:24.938Z,4.50
2023-05-12T06:41:13.448Z,4.30
2023-05-12T06:44:02.499Z,4.17
2023-05-12T06:46:50.955Z,4.10
2023-05-12T06:49:40.816Z,4.17
2023-05-12T06:52:29.365Z,4.40
2023-05-12T06:55:20.100Z,4.40
2023-05-12T06:58:08.812Z,4.00
2023-05-12T07:00:57.590Z,4.40
2023-05-12T07:03:46.183Z,3.83
2023-05-12T07:06:36.088Z,4.20
2023-05-12T07:09:24.649Z,4.20
2023-05-12T07:12:13.076Z,3.87
2023-05-12T07:15:01.645Z,3.97
2023-05-12T07:17:50.222Z,4.30
2023-05-12T07:20:39.107Z,4.10
2023-05-12T07:23:29.025Z,3.97
2023-05-12T07:26:18.744Z,4.20
2023-05-12T07:29:07.690Z,3.87
2023-05-12T07:31:56.202Z,3.70
2023-05-12T07:34:44.729Z,3.40
2023-05-12T07:37:33.320Z,4.00
2023-05-12T07:40:23.172Z,3.77
2023-05-12T07:43:15.138Z,4.07
2023-05-12T07:46:05.240Z,3.67
2023-05-12T07:48:53.884Z,4.00
2023-05-12T07:51:42.422Z,3.70
2023-05-12T07:54:30.882Z,3.80
2023-05-12T07:57:20.663Z,3.43
2023-05-12T08:00:11.195Z,4.00
2023-05-12T08:03:00.347Z,4.17
2023-05-12T08:05:48.956Z,3.60
2023-05-12T08:08:37.651Z,3.60
2023-05-12T08:11:26.191Z,3.73
2023-05-12T08:14:16.228Z,3.77
2023-05-12T08:17:05.158Z,3.33
2023-05-12T08:19:53.775Z,3.53
2023-05-12T08:22:42.272Z,3.33
2023-05-12T08:25:30.977Z,3.20
2023-05-12T08:28:19.891Z,3.23
2023-05-12T08:31:09.893Z,3.37
2023-05-12T08:34:08.948Z,3.10
2023-05-12T08:36:59.488Z,3.27
2023-05-12T08:39:48.206Z,3.07
2023-05-12T08:42:44.646Z,3.13
2023-05-12T08:45:34.157Z,3.10
2023-05-12T08:48:29.750Z,2.60
2023-05-12T08:51:20.919Z,2.60
2023-05-12T08:54:10.275Z,2.70
2023-05-12T08:59:50.218Z,2.90
2023-05-12T09:02:52.071Z,2.70
2023-05-12T09:05:44.606Z,2.40
2023-05-12T09:08:33.273Z,2.60
2023-05-12T09:11:23.071Z,2.53
2023-05-12T09:14:15.891Z,2.70
2023-05-12T09:17:06.173Z,2.40
2023-05-12T09:19:54.581Z,2.33
2023-05-12T09:22:45.627Z,2.43
2023-05-12T09:25:34.048Z,2.70
2023-05-12T09:28:22.580Z,2.42
2023-05-12T09:31:18.800Z,2.40
2023-05-12T09:34:09.500Z,2.50
2023-05-12T09:36:58.834Z,2.33
2023-05-12T09:39:48.719Z,2.70
2023-05-12T09:42:37.492Z,2.35
2023-05-12T09:45:25.883Z,2.65
2023-05-12T09:48:15.058Z,2.38
2023-05-12T09:51:03.686Z,2.40
2023-05-12T09:53:52.427Z,2.20
2023-05-12T09:56:42.669Z,2.33
2023-05-12T09:59:33.721Z,2.40
2023-05-12T10:02:22.315Z,2.25
2023-05-12T10:05:17.186Z,2.47
2023-05-12T10:08:08.719Z,2.53
2023-05-12T10:11:00.750Z,2.50
2023-05-12T10:13:50.650Z,2.60
2023-05-12T10:16:41.347Z,2.50
2023-05-12T10:19:31.283Z,2.50
2023-05-12T10:22:21.611Z,2.28
2023-05-12T10:25:10.850Z,2.20
2023-05-12T10:28:00.809Z,2.17
2023-05-12T10:30:51.699Z,2.40
2023-05-12T10:33:40.103Z,2.30
2023-05-12T10:36:28.894Z,2.58
2023-05-12T10:39:17.655Z,2.42
2023-05-12T10:42:08.564Z,2.30
2023-05-12T10:44:58.196Z,2.00
2023-05-12T10:47:48.640Z,2.20
2023-05-12T10:50:37.122Z,2.60
2023-05-12T10:53:41.396Z,2.30
2023-05-12T10:56:44.898Z,2.35
2023-05-12T10:59:33.907Z,2.45
2023-05-12T11:02:29.876Z,1.95
2023-05-12T11:05:20.680Z,2.45
2023-05-12T11:08:11.601Z,2.20
2023-05-12T11:11:00.300Z,2.28
2023-05-12T11:13:48.753Z,2.70
2023-05-12T11:16:44.037Z,2.60
2023-05-12T11:19:32.759Z,2.40
2023-05-12T11:22:24.188Z,2.38
2023-05-12T11:25:13.392Z,2.40
2023-05-12T11:28:03.531Z,2.40
2023-05-12T11:30:54.894Z,2.63
2023-05-12T11:33:44.004Z,2.30
2023-05-12T11:36:38.265Z,2.63
2023-05-12T11:39:31.140Z,2.40
2023-05-12T11:42:23.522Z,2.22
2023-05-12T11:45:25.112Z,2.70
2023-05-12T11:48:15.271Z,2.50
2023-05-12T11:51:04.206Z,2.40
2023-05-12T11:53:54.070Z,2.70
2023-05-12T11:56:49.594Z,2.50
2023-05-12T11:59:38.031Z,2.60
2023-05-12T12:02:26.643Z,2.30
2023-05-12T12:05:18.849Z,2.38
2023-05-12T12:08:09.531Z,2.15
2023-05-12T12:10:58.039Z,2.42
2023-05-12T12:13:56.593Z,2.45
2023-05-12T12:16:45.261Z,2.38
2023-05-12T12:19:33.676Z,2.40
2023-05-12T12:22:22.108Z,2.38
2023-05-12T12:25:11.384Z,2.22
2023-05-12T12:27:59.925Z,2.45
2023-05-12T12:30:49.784Z,2.42
2023-05-12T12:33:38.544Z,2.50
2023-05-12T12:36:27.076Z,2.25
2023-05-12T12:39:16.769Z,2.40
2023-05-12T12:42:07.554Z,2.28
2023-05-12T12:44:55.986Z,2.17
2023-05-12T12:47:45.897Z,2.47
2023-05-12T12:50:35.985Z,2.60
2023-05-12T12:53:24.472Z,2.53
2023-05-12T12:56:13.392Z,2.45
2023-05-12T12:59:02.055Z,2.30
2023-05-12T13:01:50.588Z,2.22
2023-05-12T13:04:40.432Z,2.35
2023-05-12T13:07:29.107Z,2.50
2023-05-12T13:10:17.744Z,2.60
2023-05-12T13:13:06.517Z,2.80
2023-05-12T13:15:55.127Z,2.30
2023-05-12T13:18:43.950Z,2.30
2023-05-12T13:21:34.305Z,2.17
2023-05-12T13:24:22.943Z,2.40
2023-05-12T13:27:11.478Z,2.40
2023-05-12T13:30:00.059Z,2.22
2023-05-12T13:32:48.710Z,2.55
2023-05-12T13:35:37.338Z,2.22
2023-05-12T13:38:27.634Z,2.60
2023-05-12T13:41:16.078Z,2.25
2023-05-12T13:44:04.706Z,2.40
2023-05-12T13:46:53.072Z,2.50
2023-05-12T13:49:41.604Z,2.50
2023-05-12T13:52:30.091Z,2.30
2023-05-12T13:55:21.594Z,2.35
2023-05-12T13:58:10.356Z,2.40
2023-05-12T14:00:58.996Z,2.22
2023-05-12T14:03:47.706Z,2.20
2023-05-12T14:06:36.321Z,2.22
2023-05-12T14:09:25.017Z,2.22
2023-05-12T14:12:15.260Z,2.20
2023-05-12T14:15:21.258Z,2.00
2023-05-12T14:18:14.212Z,2.40
2023-05-12T14:21:03.206Z,2.30
2023-05-12T14:23:51.922Z,2.17
2023-05-12T14:26:40.352Z,2.20
2023-05-12T14:29:30.114Z,2.30
2023-05-12T14:32:18.715Z,2.30
2023-05-12T14:35:09.584Z,2.30
2023-05-12T14:37:58.150Z,2.27
2023-05-12T14:40:49.479Z,2.20
2023-05-12T14:43:38.413Z,2.17
2023-05-12T14:46:28.560Z,2.40
2023-05-12T14:49:20.810Z,2.50
2023-05-12T14:52:09.331Z,2.47
2023-05-12T14:54:57.902Z,2.13
2023-05-12T14:57:47.338Z,2.00
2023-05-12T15:00:36.468Z,2.77
2023-05-12T15:03:26.355Z,2.80
2023-05-12T15:06:16.448Z,2.37
2023-05-12T15:09:05.396Z,2.47
2023-05-12T15:11:53.746Z,2.40
2023-05-12T15:14:42.318Z,2.40
2023-05-12T15:17:30.816Z,2.60
2023-05-12T15:20:20.884Z,2.63
2023-05-12T15:23:09.350Z,2.50
2023-05-12T15:25:59.358Z,2.90
2023-05-12T15:28:47.963Z,2.80
2023-05-12T15:31:36.573Z,2.50
2023-05-12T15:34:24.954Z,2.60
2023-05-12T15:37:14.933Z,2.70
2023-05-12T15:40:03.756Z,2.83
2023-05-12T15:42:52.384Z,2.90
2023-05-12T15:45:40.927Z,2.37
2023-05-12T15:48:29.358Z,2.70
2023-05-12T15:51:18.496Z,2.73
2023-05-12T15:54:09.569Z,2.63
2023-05-12T15:56:58.252Z,2.43
2023-05-12T15:59:47.588Z,2.90
2023-05-12T16:02:36.047Z,2.60
2023-05-12T16:05:24.943Z,3.00
2023-05-12T16:08:14.205Z,2.93
2023-05-12T16:11:04.002Z,2.90
2023-05-12T16:13:53.276Z,2.80
2023-05-12T16:16:43.796Z,2.73
2023-05-12T16:19:32.222Z,3.27
2023-05-12T16:22:20.756Z,3.73
2023-05-12T16:25:10.079Z,4.07
2023-05-12T16:27:59.828Z,5.20
2023-05-12T16:30:48.394Z,4.87
2023-05-12T16:33:36.828Z,4.20
2023-05-12T16:36:25.427Z,4.57
2023-05-12T16:39:13.958Z,4.23
2023-05-12T16:42:02.429Z,4.00
2023-05-12T16:44:54.722Z,3.97
2023-05-12T16:47:43.297Z,3.63
2023-05-12T16:50:32.239Z,3.20
2023-05-12T16:53:20.906Z,3.77
2023-05-12T16:56:09.486Z,3.00
2023-05-12T16:58:57.933Z,3.30
2023-05-12T17:01:47.960Z,2.80
2023-05-12T17:04:36.571Z,3.17
2023-05-12T17:07:25.207Z,3.30
2023-05-12T17:10:13.893Z,2.80
2023-05-12T17:13:02.687Z,2.73
2023-05-12T17:15:52.232Z,2.70
2023-05-12T17:21:33.916Z,3.03
2023-05-12T17:24:22.390Z,2.60
2023-05-12T17:27:11.093Z,2.43
2023-05-12T17:30:00.480Z,2.57
2023-05-12T17:32:49.525Z,2.70
2023-05-12T17:35:42.135Z,2.60
2023-05-12T17:38:31.320Z,2.80
2023-05-12T17:41:20.847Z,2.70
2023-05-12T17:44:10.574Z,2.63
2023-05-12T17:46:59.412Z,2.73
2023-05-12T17:49:48.365Z,2.40
2023-05-12T17:52:38.481Z,2.87
2023-05-12T17:55:26.987Z,2.87
2023-05-12T17:58:15.739Z,2.67
2023-05-12T18:01:04.405Z,2.70
2023-05-12T18:03:53.164Z,2.30
2023-05-12T18:06:41.696Z,2.67
2023-05-12T18:09:31.707Z,2.70
2023-05-12T18:12:20.302Z,2.10
2023-05-12T18:15:10.168Z,2.80
2023-05-12T18:17:59.069Z,2.00
2023-05-12T18:20:47.617Z,2.40
2023-05-12T18:23:36.181Z,2.80
2023-05-12T18:26:27.013Z,2.50
2023-05-12T18:29:15.548Z,2.80
2023-05-12T18:32:04.208Z,2.50
2023-05-12T18:34:52.829Z,2.83
2023-05-12T18:37:41.719Z,2.57
2023-05-12T18:40:30.249Z,2.50
2023-05-12T18:43:20.327Z,2.30
2023-05-12T18:46:08.932Z,2.07
2023-05-12T18:48:57.719Z,2.50
2023-05-12T18:51:46.278Z,2.33
2023-05-12T18:54:35.054Z,2.50
2023-05-12T18:57:23.598Z,2.50
2023-05-12T19:00:14.614Z,2.40
2023-05-12T19:03:03.682Z,2.10
2023-05-12T19:05:52.286Z,2.40
2023-05-12T19:08:40.988Z,2.57
2023-05-12T19:11:30.024Z,2.03
2023-05-12T19:14:18.487Z,2.30
2023-05-12T19:17:08.644Z,2.30
2023-05-12T19:19:57.595Z,2.50
2023-05-12T19:22:46.530Z,2.40
2023-05-12T19:25:35.564Z,2.20
2023-05-12T19:28:24.259Z,2.57
2023-05-12T19:31:13.009Z,2.60
2023-05-12T19:34:03.821Z,2.50
2023-05-12T19:36:53.408Z,2.60
2023-05-12T19:39:41.943Z,2.50
2023-05-12T19:42:30.601Z,2.57
2023-05-12T19:45:19.841Z,2.40
2023-05-12T19:48:09.270Z,2.43
2023-05-12T19:50:59.338Z,2.70
2023-05-12T19:53:48.006Z,2.67
2023-05-12T19:56:36.507Z,2.87
2023-05-12T19:59:26.814Z,2.77
2023-05-12T20:02:17.206Z,2.80
2023-05-12T20:05:07.223Z,2.83
2023-05-12T20:07:57.272Z,2.70
2023-05-12T20:10:46.256Z,3.00
2023-05-12T20:13:34.780Z,2.60
2023-05-12T20:16:23.405Z,2.53
2023-05-12T20:19:11.966Z,2.67
2023-05-12T20:22:00.781Z,2.90
2023-05-12T20:24:51.521Z,2.70
